sensor_id;sensor_type;location;lat;lon;timestamp;pressure;altitude;pressure_sealevel;temperature;humidity
36932;BME280;22847;42.654;23.370;2023-08-01T00:01:00;94352.59;;;23.49;nan
36932;BME280;22847;42.654;23.370;2023-08-01T00:03:25;94334.41;;;23.34;nan
36932;BME280;22847;42.654;23.370;2023-08-01T00:05:51;94261.84;;;22.92;nan
36932;BME280;22847;42.654;23.370;2023-08-01T00:08:16;94341.22;;;23.30;nan
36932;BME280;22847;42.654;23.370;2023-08-01T00:10:42;94352.09;;;23.40;nan
36932;BME280;22847;42.654;23.370;2023-08-01T00:13:08;94361.91;;;23.28;nan
36932;BME280;22847;42.654;23.370;2023-08-01T00:15:33;94251.69;;;22.78;nan
36932;BME280;22847;42.654;23.370;2023-08-01T00:17:59;94331.16;;;23.32;nan
36932;BME280;22847;42.654;23.370;2023-08-01T00:20:24;94352.94;;;23.52;nan
36932;BME280;22847;42.654;23.370;2023-08-01T00:22:50;94366.59;;;23.44;nan
36932;BME280;22847;42.654;23.370;2023-08-01T00:25:15;94353.75;;;23.41;nan
36932;BME280;22847;42.654;23.370;2023-08-01T00:27:41;94242.16;;;22.70;nan
36932;BME280;22847;42.654;23.370;2023-08-01T00:30:07;94295.16;;;23.06;nan
36932;BME280;22847;42.654;23.370;2023-08-01T00:32:34;94347.13;;;23.32;nan
36932;BME280;22847;42.654;23.370;2023-08-01T00:34:59;94327.69;;;23.32;nan
36932;BME280;22847;42.654;23.370;2023-08-01T00:37:25;94361.06;;;23.46;nan
36932;BME280;22847;42.654;23.370;2023-08-01T00:39:50;94361.41;;;23.49;nan
36932;BME280;22847;42.654;23.370;2023-08-01T00:42:15;94355.56;;;23.29;nan
36932;BME280;22847;42.654;23.370;2023-08-01T00:44:41;94359.50;;;23.38;nan
36932;BME280;22847;42.654;23.370;2023-08-01T00:47:06;94247.94;;;22.67;nan
36932;BME280;22847;42.654;23.370;2023-08-01T00:49:32;94349.19;;;23.30;nan
36932;BME280;22847;42.654;23.370;2023-08-01T00:51:58;94334.97;;;23.25;nan
36932;BME280;22847;42.654;23.370;2023-08-01T00:54:24;94259.66;;;22.78;nan
36932;BME280;22847;42.654;23.370;2023-08-01T00:56:50;94302.91;;;23.08;nan
36932;BME280;22847;42.654;23.370;2023-08-01T00:59:15;94278.88;;;22.91;nan
36932;BME280;22847;42.654;23.370;2023-08-01T01:01:41;94343.66;;;23.32;nan
36932;BME280;22847;42.654;23.370;2023-08-01T01:04:08;94228.94;;;22.52;nan
36932;BME280;22847;42.654;23.370;2023-08-01T01:06:51;94218.69;;;22.55;nan
36932;BME280;22847;42.654;23.370;2023-08-01T01:09:19;94348.59;;;23.28;nan
36932;BME280;22847;42.654;23.370;2023-08-01T01:11:45;94227.94;;;22.64;nan
36932;BME280;22847;42.654;23.370;2023-08-01T01:14:11;94334.28;;;23.29;nan
36932;BME280;22847;42.654;23.370;2023-08-01T01:16:36;94332.66;;;23.28;nan
36932;BME280;22847;42.654;23.370;2023-08-01T01:19:06;94295.16;;;23.06;nan
36932;BME280;22847;42.654;23.370;2023-08-01T01:21:34;94311.50;;;23.22;nan
36932;BME280;22847;42.654;23.370;2023-08-01T01:24:02;94326.88;;;23.31;nan
36932;BME280;22847;42.654;23.370;2023-08-01T01:26:28;94230.50;;;22.71;nan
36932;BME280;22847;42.654;23.370;2023-08-01T01:28:53;94315.78;;;23.23;nan
36932;BME280;22847;42.654;23.370;2023-08-01T01:31:20;94308.22;;;23.20;nan
36932;BME280;22847;42.654;23.370;2023-08-01T01:33:46;94261.63;;;22.94;nan
36932;BME280;22847;42.654;23.370;2023-08-01T01:36:11;94329.06;;;23.34;nan
36932;BME280;22847;42.654;23.370;2023-08-01T01:38:36;94319.59;;;23.38;nan
36932;BME280;22847;42.654;23.370;2023-08-01T01:41:02;94326.28;;;23.29;nan
36932;BME280;22847;42.654;23.370;2023-08-01T01:43:27;94298.78;;;23.35;nan
36932;BME280;22847;42.654;23.370;2023-08-01T01:45:53;94208.78;;;22.86;nan
36932;BME280;22847;42.654;23.370;2023-08-01T01:48:18;94313.81;;;23.41;nan
36932;BME280;22847;42.654;23.370;2023-08-01T01:50:44;94305.72;;;23.36;nan
36932;BME280;22847;42.654;23.370;2023-08-01T01:53:09;94315.28;;;23.37;nan
36932;BME280;22847;42.654;23.370;2023-08-01T01:55:34;94329.66;;;23.36;nan
36932;BME280;22847;42.654;23.370;2023-08-01T01:58:00;94338.09;;;23.33;nan
36932;BME280;22847;42.654;23.370;2023-08-01T02:00:25;94306.16;;;23.22;nan
36932;BME280;22847;42.654;23.370;2023-08-01T02:02:51;94341.22;;;23.30;nan
36932;BME280;22847;42.654;23.370;2023-08-01T02:05:16;94234.19;;;22.70;nan
36932;BME280;22847;42.654;23.370;2023-08-01T02:07:41;94323.06;;;23.27;nan
36932;BME280;22847;42.654;23.370;2023-08-01T02:10:07;94317.63;;;23.34;nan
36932;BME280;22847;42.654;23.370;2023-08-01T02:12:33;94271.22;;;23.06;nan
36932;BME280;22847;42.654;23.370;2023-08-01T02:15:00;94269.50;;;23.00;nan
36932;BME280;22847;42.654;23.370;2023-08-01T02:17:26;94281.97;;;23.11;nan
36932;BME280;22847;42.654;23.370;2023-08-01T02:19:51;94305.81;;;23.06;nan
36932;BME280;22847;42.654;23.370;2023-08-01T02:22:17;94320.84;;;23.24;nan
36932;BME280;22847;42.654;23.370;2023-08-01T02:24:42;94195.28;;;22.22;nan
36932;BME280;22847;42.654;23.370;2023-08-01T02:27:08;94293.28;;;22.72;nan
36932;BME280;22847;42.654;23.370;2023-08-01T02:29:34;94321.09;;;22.69;nan
36932;BME280;22847;42.654;23.370;2023-08-01T02:31:59;94243.16;;;22.16;nan
36932;BME280;22847;42.654;23.370;2023-08-01T02:34:24;94324.13;;;22.73;nan
36932;BME280;22847;42.654;23.370;2023-08-01T02:36:50;94215.78;;;22.04;nan
36932;BME280;22847;42.654;23.370;2023-08-01T02:39:15;94312.75;;;22.66;nan
36932;BME280;22847;42.654;23.370;2023-08-01T02:41:41;94173.41;;;21.79;nan
36932;BME280;22847;42.654;23.370;2023-08-01T02:44:06;94311.22;;;22.58;nan
36932;BME280;22847;42.654;23.370;2023-08-01T02:46:31;94318.88;;;22.66;nan
36932;BME280;22847;42.654;23.370;2023-08-01T02:48:57;94176.84;;;21.79;nan
36932;BME280;22847;42.654;23.370;2023-08-01T02:51:22;94201.19;;;21.95;nan
36932;BME280;22847;42.654;23.370;2023-08-01T02:53:48;94298.03;;;22.52;nan
36932;BME280;22847;42.654;23.370;2023-08-01T02:56:13;94310.41;;;22.46;nan
36932;BME280;22847;42.654;23.370;2023-08-01T02:58:38;94303.47;;;22.57;nan
36932;BME280;22847;42.654;23.370;2023-08-01T03:01:08;94319.78;;;22.60;nan
36932;BME280;22847;42.654;23.370;2023-08-01T03:03:35;94192.50;;;21.88;nan
36932;BME280;22847;42.654;23.370;2023-08-01T03:06:01;94297.25;;;22.51;nan
36932;BME280;22847;42.654;23.370;2023-08-01T03:08:26;94313.75;;;22.53;nan
36932;BME280;22847;42.654;23.370;2023-08-01T03:10:53;94296.97;;;22.41;nan
36932;BME280;22847;42.654;23.370;2023-08-01T03:13:21;94316.97;;;22.44;nan
36932;BME280;22847;42.654;23.370;2023-08-01T03:15:46;94311.59;;;22.32;nan
36932;BME280;22847;42.654;23.370;2023-08-01T03:18:12;94319.84;;;22.42;nan
36932;BME280;22847;42.654;23.370;2023-08-01T03:20:37;94307.59;;;22.41;nan
36932;BME280;22847;42.654;23.370;2023-08-01T03:23:03;94303.81;;;22.19;nan
36932;BME280;22847;42.654;23.370;2023-08-01T03:25:28;94312.56;;;22.38;nan
36932;BME280;22847;42.654;23.370;2023-08-01T03:27:54;94310.19;;;22.30;nan
36932;BME280;22847;42.654;23.370;2023-08-01T03:30:20;94283.78;;;22.05;nan
36932;BME280;22847;42.654;23.370;2023-08-01T03:32:46;94189.97;;;21.45;nan
36932;BME280;22847;42.654;23.370;2023-08-01T03:35:12;94098.47;;;20.99;nan
36932;BME280;22847;42.654;23.370;2023-08-01T03:37:39;94324.91;;;22.14;nan
36932;BME280;22847;42.654;23.370;2023-08-01T03:40:05;94340.22;;;22.00;nan
36932;BME280;22847;42.654;23.370;2023-08-01T03:42:34;94299.50;;;21.70;nan
36932;BME280;22847;42.654;23.370;2023-08-01T03:44:59;94166.66;;;20.74;nan
36932;BME280;22847;42.654;23.370;2023-08-01T03:47:25;94341.41;;;21.79;nan
36932;BME280;22847;42.654;23.370;2023-08-01T03:49:50;94325.50;;;21.61;nan
36932;BME280;22847;42.654;23.370;2023-08-01T03:52:15;94301.69;;;21.36;nan
36932;BME280;22847;42.654;23.370;2023-08-01T03:54:41;94352.56;;;21.52;nan
36932;BME280;22847;42.654;23.370;2023-08-01T03:57:06;94315.91;;;20.92;nan
36932;BME280;22847;42.654;23.370;2023-08-01T03:59:32;94341.09;;;21.33;nan
36932;BME280;22847;42.654;23.370;2023-08-01T04:01:57;94327.81;;;20.83;nan
36932;BME280;22847;42.654;23.370;2023-08-01T04:04:23;94332.19;;;20.96;nan
36932;BME280;22847;42.654;23.370;2023-08-01T04:06:48;94221.56;;;20.35;nan
36932;BME280;22847;42.654;23.370;2023-08-01T04:09:32;94336.69;;;20.71;nan
36932;BME280;22847;42.654;23.370;2023-08-01T04:11:58;94360.00;;;20.87;nan
36932;BME280;22847;42.654;23.370;2023-08-01T04:14:23;94366.00;;;21.01;nan
36932;BME280;22847;42.654;23.370;2023-08-01T04:16:49;94232.47;;;20.52;nan
36932;BME280;22847;42.654;23.370;2023-08-01T04:19:14;94346.47;;;22.24;nan
36932;BME280;22847;42.654;23.370;2023-08-01T04:21:39;94323.97;;;23.21;nan
36932;BME280;22847;42.654;23.370;2023-08-01T04:24:05;94337.34;;;24.19;nan
36932;BME280;22847;42.654;23.370;2023-08-01T04:26:30;94253.72;;;24.49;nan
36932;BME280;22847;42.654;23.370;2023-08-01T04:28:56;94351.69;;;25.65;nan
36932;BME280;22847;42.654;23.370;2023-08-01T04:31:21;94359.75;;;26.08;nan
36932;BME280;22847;42.654;23.370;2023-08-01T04:33:47;94254.22;;;25.67;nan
36932;BME280;22847;42.654;23.370;2023-08-01T04:36:12;94332.44;;;26.45;nan
36932;BME280;22847;42.654;23.370;2023-08-01T04:38:37;94364.78;;;26.65;nan
36932;BME280;22847;42.654;23.370;2023-08-01T04:41:03;94354.13;;;26.70;nan
36932;BME280;22847;42.654;23.370;2023-08-01T04:43:28;94225.19;;;25.93;nan
36932;BME280;22847;42.654;23.370;2023-08-01T04:45:54;94333.88;;;26.31;nan
36932;BME280;22847;42.654;23.370;2023-08-01T04:48:19;94348.16;;;26.63;nan
36932;BME280;22847;42.654;23.370;2023-08-01T04:50:45;94321.91;;;26.60;nan
36932;BME280;22847;42.654;23.370;2023-08-01T04:53:10;94328.88;;;26.61;nan
36932;BME280;22847;42.654;23.370;2023-08-01T04:55:36;94331.03;;;26.64;nan
36932;BME280;22847;42.654;23.370;2023-08-01T04:58:02;94245.47;;;26.15;nan
36932;BME280;22847;42.654;23.370;2023-08-01T05:00:27;94298.78;;;26.76;nan
36932;BME280;22847;42.654;23.370;2023-08-01T05:02:52;94343.63;;;27.17;nan
36932;BME280;22847;42.654;23.370;2023-08-01T05:05:18;94319.13;;;27.03;nan
36932;BME280;22847;42.654;23.370;2023-08-01T05:07:44;94337.78;;;27.25;nan
36932;BME280;22847;42.654;23.370;2023-08-01T05:10:09;94354.41;;;27.54;nan
36932;BME280;22847;42.654;23.370;2023-08-01T05:12:35;94367.91;;;27.69;nan
36932;BME280;22847;42.654;23.370;2023-08-01T05:15:00;94343.25;;;27.72;nan
36932;BME280;22847;42.654;23.370;2023-08-01T05:17:25;94336.75;;;27.58;nan
36932;BME280;22847;42.654;23.370;2023-08-01T05:19:51;94329.50;;;27.27;nan
36932;BME280;22847;42.654;23.370;2023-08-01T05:22:16;94354.34;;;27.49;nan
36932;BME280;22847;42.654;23.370;2023-08-01T05:24:42;94260.88;;;27.11;nan
36932;BME280;22847;42.654;23.370;2023-08-01T05:27:07;94289.88;;;27.24;nan
36932;BME280;22847;42.654;23.370;2023-08-01T05:29:32;94275.56;;;27.45;nan
36932;BME280;22847;42.654;23.370;2023-08-01T05:31:58;94342.91;;;28.01;nan
36932;BME280;22847;42.654;23.370;2023-08-01T05:34:23;94340.91;;;28.23;nan
36932;BME280;22847;42.654;23.370;2023-08-01T05:36:49;94344.94;;;28.30;nan
36932;BME280;22847;42.654;23.370;2023-08-01T05:39:15;94344.66;;;28.27;nan
36932;BME280;22847;42.654;23.370;2023-08-01T05:41:42;94326.75;;;28.43;nan
36932;BME280;22847;42.654;23.370;2023-08-01T05:44:07;94242.94;;;28.05;nan
36932;BME280;22847;42.654;23.370;2023-08-01T05:46:33;94330.91;;;28.75;nan
36932;BME280;22847;42.654;23.370;2023-08-01T05:48:58;94339.56;;;29.08;nan
36932;BME280;22847;42.654;23.370;2023-08-01T05:51:23;94337.38;;;28.85;nan
36932;BME280;22847;42.654;23.370;2023-08-01T05:53:49;94240.84;;;28.17;nan
36932;BME280;22847;42.654;23.370;2023-08-01T05:56:14;94346.53;;;29.04;nan
36932;BME280;22847;42.654;23.370;2023-08-01T05:58:40;94319.69;;;29.29;nan
36932;BME280;22847;42.654;23.370;2023-08-01T06:01:05;94327.50;;;29.36;nan
36932;BME280;22847;42.654;23.370;2023-08-01T06:03:31;94238.59;;;29.07;nan
36932;BME280;22847;42.654;23.370;2023-08-01T06:05:56;94343.59;;;29.66;nan
36932;BME280;22847;42.654;23.370;2023-08-01T06:08:22;94234.53;;;29.09;nan
36932;BME280;22847;42.654;23.370;2023-08-01T06:10:47;94322.91;;;29.61;nan
36932;BME280;22847;42.654;23.370;2023-08-01T06:13:13;94324.50;;;29.78;nan
36932;BME280;22847;42.654;23.370;2023-08-01T06:15:38;94225.94;;;29.38;nan
36932;BME280;22847;42.654;23.370;2023-08-01T06:18:03;94337.06;;;30.18;nan
36932;BME280;22847;42.654;23.370;2023-08-01T06:20:29;94336.06;;;30.03;nan
36932;BME280;22847;42.654;23.370;2023-08-01T06:22:55;94336.81;;;30.04;nan
36932;BME280;22847;42.654;23.370;2023-08-01T06:25:20;94233.19;;;29.52;nan
36932;BME280;22847;42.654;23.370;2023-08-01T06:27:45;94254.69;;;29.17;nan
36932;BME280;22847;42.654;23.370;2023-08-01T06:30:11;94231.03;;;29.24;nan
36932;BME280;22847;42.654;23.370;2023-08-01T06:32:37;94243.09;;;29.62;nan
36932;BME280;22847;42.654;23.370;2023-08-01T06:35:02;94322.25;;;30.30;nan
36932;BME280;22847;42.654;23.370;2023-08-01T06:37:28;94221.28;;;29.79;nan
36932;BME280;22847;42.654;23.370;2023-08-01T06:39:54;94243.28;;;29.96;nan
36932;BME280;22847;42.654;23.370;2023-08-01T06:42:20;94311.34;;;30.66;nan
36932;BME280;22847;42.654;23.370;2023-08-01T06:44:46;94303.91;;;30.37;nan
36932;BME280;22847;42.654;23.370;2023-08-01T06:47:11;94315.31;;;30.73;nan
36932;BME280;22847;42.654;23.370;2023-08-01T06:49:37;94265.41;;;30.42;nan
36932;BME280;22847;42.654;23.370;2023-08-01T06:52:03;94302.88;;;30.82;nan
36932;BME280;22847;42.654;23.370;2023-08-01T06:54:28;94308.81;;;30.84;nan
36932;BME280;22847;42.654;23.370;2023-08-01T06:56:53;94306.00;;;30.99;nan
36932;BME280;22847;42.654;23.370;2023-08-01T06:59:19;94320.06;;;31.30;nan
36932;BME280;22847;42.654;23.370;2023-08-01T07:01:44;94231.56;;;30.80;nan
36932;BME280;22847;42.654;23.370;2023-08-01T07:04:10;94302.19;;;31.39;nan
36932;BME280;22847;42.654;23.370;2023-08-01T07:06:36;94237.66;;;30.90;nan
36932;BME280;22847;42.654;23.370;2023-08-01T07:09:02;94240.84;;;29.99;nan
36932;BME280;22847;42.654;23.370;2023-08-01T07:11:27;94308.94;;;31.03;nan
36932;BME280;22847;42.654;23.370;2023-08-01T07:13:52;94304.34;;;31.42;nan
36932;BME280;22847;42.654;23.370;2023-08-01T07:16:18;94297.31;;;30.69;nan
36932;BME280;22847;42.654;23.370;2023-08-01T07:18:43;94290.00;;;30.74;nan
36932;BME280;22847;42.654;23.370;2023-08-01T07:21:09;94315.88;;;31.14;nan
36932;BME280;22847;42.654;23.370;2023-08-01T07:23:34;94242.72;;;31.02;nan
36932;BME280;22847;42.654;23.370;2023-08-01T07:26:01;94302.13;;;31.50;nan
36932;BME280;22847;42.654;23.370;2023-08-01T07:28:26;94302.63;;;30.79;nan
36932;BME280;22847;42.654;23.370;2023-08-01T07:31:02;94269.00;;;31.15;nan
36932;BME280;22847;42.654;23.370;2023-08-01T07:33:29;94295.47;;;31.42;nan
36932;BME280;22847;42.654;23.370;2023-08-01T07:35:54;94292.63;;;31.57;nan
36932;BME280;22847;42.654;23.370;2023-08-01T07:38:20;94282.34;;;31.64;nan
36932;BME280;22847;42.654;23.370;2023-08-01T07:40:45;94260.28;;;31.86;nan
36932;BME280;22847;42.654;23.370;2023-08-01T07:43:11;94250.75;;;32.17;nan
36932;BME280;22847;42.654;23.370;2023-08-01T07:45:37;94271.78;;;32.63;nan
36932;BME280;22847;42.654;23.370;2023-08-01T07:48:03;94165.34;;;31.65;nan
36932;BME280;22847;42.654;23.370;2023-08-01T07:50:28;94304.72;;;32.17;nan
36932;BME280;22847;42.654;23.370;2023-08-01T07:52:54;94276.91;;;31.93;nan
36932;BME280;22847;42.654;23.370;2023-08-01T07:55:19;94176.31;;;31.45;nan
36932;BME280;22847;42.654;23.370;2023-08-01T07:57:49;94284.28;;;32.11;nan
36932;BME280;22847;42.654;23.370;2023-08-01T08:00:15;94251.63;;;31.31;nan
36932;BME280;22847;42.654;23.370;2023-08-01T08:02:44;94279.47;;;31.51;nan
36932;BME280;22847;42.654;23.370;2023-08-01T08:05:10;94285.03;;;31.64;nan
36932;BME280;22847;42.654;23.370;2023-08-01T08:07:36;94288.31;;;31.85;nan
36932;BME280;22847;42.654;23.370;2023-08-01T08:10:03;94189.81;;;31.40;nan
36932;BME280;22847;42.654;23.370;2023-08-01T08:12:29;94260.59;;;32.03;nan
36932;BME280;22847;42.654;23.370;2023-08-01T08:14:54;94271.63;;;32.07;nan
36932;BME280;22847;42.654;23.370;2023-08-01T08:17:19;94172.25;;;31.19;nan
36932;BME280;22847;42.654;23.370;2023-08-01T08:19:45;94275.75;;;31.99;nan
36932;BME280;22847;42.654;23.370;2023-08-01T08:22:10;94169.91;;;31.65;nan
36932;BME280;22847;42.654;23.370;2023-08-01T08:24:36;94262.59;;;32.64;nan
36932;BME280;22847;42.654;23.370;2023-08-01T08:27:01;94137.69;;;31.97;nan
36932;BME280;22847;42.654;23.370;2023-08-01T08:29:27;94243.84;;;32.72;nan
36932;BME280;22847;42.654;23.370;2023-08-01T08:31:52;94243.13;;;32.62;nan
36932;BME280;22847;42.654;23.370;2023-08-01T08:34:18;94150.25;;;31.35;nan
36932;BME280;22847;42.654;23.370;2023-08-01T08:36:43;94257.38;;;32.49;nan
36932;BME280;22847;42.654;23.370;2023-08-01T08:39:09;94247.81;;;32.56;nan
36932;BME280;22847;42.654;23.370;2023-08-01T08:41:46;94240.88;;;32.31;nan
36932;BME280;22847;42.654;23.370;2023-08-01T08:44:16;94222.09;;;32.21;nan
36932;BME280;22847;42.654;23.370;2023-08-01T08:46:44;94218.56;;;32.45;nan
36932;BME280;22847;42.654;23.370;2023-08-01T08:49:10;94243.88;;;32.49;nan
36932;BME280;22847;42.654;23.370;2023-08-01T08:51:36;94230.75;;;32.42;nan
36932;BME280;22847;42.654;23.370;2023-08-01T08:54:04;94241.81;;;32.41;nan
36932;BME280;22847;42.654;23.370;2023-08-01T08:56:31;94238.78;;;32.66;nan
36932;BME280;22847;42.654;23.370;2023-08-01T08:58:57;94234.72;;;32.68;nan
36932;BME280;22847;42.654;23.370;2023-08-01T09:01:22;94220.00;;;32.56;nan
36932;BME280;22847;42.654;23.370;2023-08-01T09:03:48;94123.63;;;32.00;nan
36932;BME280;22847;42.654;23.370;2023-08-01T09:06:18;94140.41;;;31.97;nan
36932;BME280;22847;42.654;23.370;2023-08-01T09:08:50;94218.91;;;32.57;nan
36932;BME280;22847;42.654;23.370;2023-08-01T09:11:17;94223.28;;;32.53;nan
36932;BME280;22847;42.654;23.370;2023-08-01T09:13:42;94213.63;;;32.09;nan
36932;BME280;22847;42.654;23.370;2023-08-01T09:16:09;94208.97;;;32.15;nan
36932;BME280;22847;42.654;23.370;2023-08-01T09:18:35;94203.97;;;32.27;nan
36932;BME280;22847;42.654;23.370;2023-08-01T09:21:00;94205.19;;;32.35;nan
36932;BME280;22847;42.654;23.370;2023-08-01T09:23:29;94215.34;;;32.24;nan
36932;BME280;22847;42.654;23.370;2023-08-01T09:25:55;94207.63;;;31.70;nan
36932;BME280;22847;42.654;23.370;2023-08-01T09:28:24;94205.47;;;31.67;nan
36932;BME280;22847;42.654;23.370;2023-08-01T09:30:54;94114.69;;;31.38;nan
36932;BME280;22847;42.654;23.370;2023-08-01T09:33:23;94204.25;;;32.44;nan
36932;BME280;22847;42.654;23.370;2023-08-01T09:35:52;94193.44;;;32.25;nan
36932;BME280;22847;42.654;23.370;2023-08-01T09:38:17;94107.66;;;32.04;nan
36932;BME280;22847;42.654;23.370;2023-08-01T09:40:44;94203.47;;;32.81;nan
36932;BME280;22847;42.654;23.370;2023-08-01T09:43:11;94202.25;;;32.73;nan
36932;BME280;22847;42.654;23.370;2023-08-01T09:45:37;94102.44;;;32.12;nan
36932;BME280;22847;42.654;23.370;2023-08-01T09:48:02;94198.19;;;32.33;nan
36932;BME280;22847;42.654;23.370;2023-08-01T09:50:28;94183.75;;;32.81;nan
36932;BME280;22847;42.654;23.370;2023-08-01T09:52:53;94069.88;;;32.04;nan
36932;BME280;22847;42.654;23.370;2023-08-01T09:55:26;94192.44;;;32.78;nan
36932;BME280;22847;42.654;23.370;2023-08-01T09:57:57;94161.66;;;32.92;nan
36932;BME280;22847;42.654;23.370;2023-08-01T10:00:25;94164.06;;;31.53;nan
36932;BME280;22847;42.654;23.370;2023-08-01T10:02:52;94175.81;;;31.67;nan
36932;BME280;22847;42.654;23.370;2023-08-01T10:05:19;94171.59;;;31.79;nan
36932;BME280;22847;42.654;23.370;2023-08-01T10:07:45;94150.22;;;32.07;nan
36932;BME280;22847;42.654;23.370;2023-08-01T10:10:11;94154.09;;;32.01;nan
36932;BME280;22847;42.654;23.370;2023-08-01T10:12:37;94167.78;;;32.47;nan
36932;BME280;22847;42.654;23.370;2023-08-01T10:15:04;94046.09;;;31.26;nan
36932;BME280;22847;42.654;23.370;2023-08-01T10:17:30;94150.19;;;32.49;nan
36932;BME280;22847;42.654;23.370;2023-08-01T10:19:56;94148.38;;;32.63;nan
36932;BME280;22847;42.654;23.370;2023-08-01T10:22:23;94105.56;;;32.19;nan
36932;BME280;22847;42.654;23.370;2023-08-01T10:24:50;94135.00;;;32.16;nan
36932;BME280;22847;42.654;23.370;2023-08-01T10:27:19;94112.19;;;32.27;nan
36932;BME280;22847;42.654;23.370;2023-08-01T10:29:56;94026.66;;;31.90;nan
36932;BME280;22847;42.654;23.370;2023-08-01T10:32:29;94134.31;;;32.61;nan
36932;BME280;22847;42.654;23.370;2023-08-01T10:34:55;94131.50;;;32.71;nan
36932;BME280;22847;42.654;23.370;2023-08-01T10:37:20;94104.94;;;32.60;nan
36932;BME280;22847;42.654;23.370;2023-08-01T10:39:56;94108.50;;;32.74;nan
36932;BME280;22847;42.654;23.370;2023-08-01T10:42:22;94021.75;;;32.29;nan
36932;BME280;22847;42.654;23.370;2023-08-01T10:44:47;94124.06;;;32.45;nan
36932;BME280;22847;42.654;23.370;2023-08-01T10:47:13;94136.91;;;32.53;nan
36932;BME280;22847;42.654;23.370;2023-08-01T10:49:41;94099.78;;;32.63;nan
36932;BME280;22847;42.654;23.370;2023-08-01T10:52:21;94111.44;;;32.78;nan
36932;BME280;22847;42.654;23.370;2023-08-01T10:57:24;94084.34;;;32.31;nan
36932;BME280;22847;42.654;23.370;2023-08-01T10:59:50;93987.38;;;31.84;nan
36932;BME280;22847;42.654;23.370;2023-08-01T11:02:24;94100.75;;;32.86;nan
36932;BME280;22847;42.654;23.370;2023-08-01T11:04:56;94066.69;;;32.71;nan
36932;BME280;22847;42.654;23.370;2023-08-01T11:07:22;94081.50;;;32.74;nan
36932;BME280;22847;42.654;23.370;2023-08-01T11:09:47;94100.06;;;32.43;nan
36932;BME280;22847;42.654;23.370;2023-08-01T11:12:12;94004.59;;;31.88;nan
36932;BME280;22847;42.654;23.370;2023-08-01T11:14:38;94085.34;;;32.36;nan
36932;BME280;22847;42.654;23.370;2023-08-01T11:17:04;93956.69;;;31.61;nan
36932;BME280;22847;42.654;23.370;2023-08-01T11:19:30;94086.81;;;32.28;nan
36932;BME280;22847;42.654;23.370;2023-08-01T11:21:56;94040.75;;;31.44;nan
36932;BME280;22847;42.654;23.370;2023-08-01T11:24:23;94064.63;;;31.94;nan
36932;BME280;22847;42.654;23.370;2023-08-01T11:26:50;94074.78;;;32.20;nan
36932;BME280;22847;42.654;23.370;2023-08-01T11:29:17;94068.34;;;32.35;nan
36932;BME280;22847;42.654;23.370;2023-08-01T11:31:59;94057.59;;;32.67;nan
36932;BME280;22847;42.654;23.370;2023-08-01T11:34:25;94031.72;;;32.61;nan
36932;BME280;22847;42.654;23.370;2023-08-01T11:36:51;94050.56;;;32.15;nan
36932;BME280;22847;42.654;23.370;2023-08-01T11:39:17;94062.88;;;32.40;nan
36932;BME280;22847;42.654;23.370;2023-08-01T11:41:43;94061.44;;;32.61;nan
36932;BME280;22847;42.654;23.370;2023-08-01T11:44:09;94044.72;;;32.46;nan
36932;BME280;22847;42.654;23.370;2023-08-01T11:46:37;94057.84;;;32.33;nan
36932;BME280;22847;42.654;23.370;2023-08-01T11:49:06;94026.47;;;31.44;nan
36932;BME280;22847;42.654;23.370;2023-08-01T11:51:39;94044.22;;;32.06;nan
36932;BME280;22847;42.654;23.370;2023-08-01T11:54:05;94004.41;;;31.98;nan
36932;BME280;22847;42.654;23.370;2023-08-01T11:56:33;94027.09;;;31.36;nan
36932;BME280;22847;42.654;23.370;2023-08-01T11:58:58;93926.28;;;30.76;nan
36932;BME280;22847;42.654;23.370;2023-08-01T12:01:25;94000.88;;;30.46;nan
36932;BME280;22847;42.654;23.370;2023-08-01T12:03:53;94037.25;;;30.96;nan
36932;BME280;22847;42.654;23.370;2023-08-01T12:06:21;94025.59;;;31.06;nan
36932;BME280;22847;42.654;23.370;2023-08-01T12:08:53;94016.22;;;31.22;nan
36932;BME280;22847;42.654;23.370;2023-08-01T12:11:26;94015.84;;;31.53;nan
36932;BME280;22847;42.654;23.370;2023-08-01T12:14:12;94026.50;;;31.63;nan
36932;BME280;22847;42.654;23.370;2023-08-01T12:16:42;93999.66;;;31.53;nan
36932;BME280;22847;42.654;23.370;2023-08-01T12:19:16;93999.94;;;31.56;nan
36932;BME280;22847;42.654;23.370;2023-08-01T12:21:41;94006.69;;;31.91;nan
36932;BME280;22847;42.654;23.370;2023-08-01T12:24:07;94004.09;;;32.37;nan
36932;BME280;22847;42.654;23.370;2023-08-01T12:26:32;93876.78;;;31.52;nan
36932;BME280;22847;42.654;23.370;2023-08-01T12:28:58;94014.41;;;32.49;nan
36932;BME280;22847;42.654;23.370;2023-08-01T12:31:23;93968.78;;;32.33;nan
36932;BME280;22847;42.654;23.370;2023-08-01T12:33:48;93919.56;;;32.09;nan
36932;BME280;22847;42.654;23.370;2023-08-01T12:36:15;93986.88;;;32.65;nan
36932;BME280;22847;42.654;23.370;2023-08-01T12:38:40;93982.34;;;31.96;nan
36932;BME280;22847;42.654;23.370;2023-08-01T12:41:07;93978.84;;;31.77;nan
36932;BME280;22847;42.654;23.370;2023-08-01T12:43:32;93888.75;;;31.27;nan
36932;BME280;22847;42.654;23.370;2023-08-01T12:45:57;93803.72;;;31.02;nan
36932;BME280;22847;42.654;23.370;2023-08-01T12:48:27;93974.72;;;32.49;nan
36932;BME280;22847;42.654;23.370;2023-08-01T12:50:52;93950.28;;;32.27;nan
36932;BME280;22847;42.654;23.370;2023-08-01T12:53:18;93950.25;;;32.13;nan
36932;BME280;22847;42.654;23.370;2023-08-01T12:55:45;93964.66;;;31.71;nan
36932;BME280;22847;42.654;23.370;2023-08-01T12:58:11;93905.28;;;31.58;nan
36932;BME280;22847;42.654;23.370;2023-08-01T13:00:36;93971.25;;;32.16;nan
36932;BME280;22847;42.654;23.370;2023-08-01T13:03:02;93894.94;;;31.65;nan
36932;BME280;22847;42.654;23.370;2023-08-01T13:05:27;93859.22;;;31.54;nan
36932;BME280;22847;42.654;23.370;2023-08-01T13:07:52;93867.97;;;31.46;nan